Vail, Washington
Current Conditions -  °F | °C
As of 4:24 AM on Monday 26 Jan 2015 (Local Time) from KOLM Reporting Station
Scattered Clouds Scattered Clouds  
Wind Chill:   Ceiling: Unl
Heat Index:   Visibility: 10mi
Dew Point:   Wind: 7mph
Humidity: 97%   Direction: 220°SW
Pressure: 29.95"   Gusts: NA
Location:  46.8214°N, 122.662°W
Report Text: KOLM 261224Z AUTO 22006KT 10SM SCT002 06/06 A2995 RMK AO2 T00610056
Loading
Personal Weather Stations






























Interactive Weather Map New forecast layout! Learn more

10-Day Weather Forecast

Advertisements
Track Severe Weather on mobile